UAE725 OMDB-HTDA
Flight info
| Callsign | UAE725 |
|---|---|
| Flight time | 4h 54m |
| Altitude | 34000 |
| Route | ANVIX R401 GIDIS G783 UKRAG/N0489F350 L710 KUKDI/N0487F340 B400 RAPDO/N0487F360 B400 VEDET UL437 ELAVA DUKBO1C |
| Aircraft | B77W/H-SDE1E2E3FGHIJ2J3J4J5M1RWXY/LB1D1 |
Departure
| Time | 2026-05-09 01:58 |
|---|---|
| Airport | Dubai International Airport (OMDB) |
Arrival
| Time | 2026-05-09 06:52 |
|---|---|
| Airport | Julius Nyerere International Airport (HTDA) |
| Time | Latitude | Longitude | Altitude | Speed | Heading |
|---|---|---|---|---|---|
| 2026-05-09 01:26 | 25.25537 | 55.35146 | 26 ft | 0 kts | 211° |
| 2026-05-09 01:27 | 25.25534 | 55.35144 | 26 ft | 0 kts | 211° |
| 2026-05-09 01:46 | 25.25546 | 55.35152 | 31 ft | 3 kts | 211° |
| 2026-05-09 01:46 | 25.25569 | 55.35168 | 30 ft | 3 kts | 211° |
| 2026-05-09 01:46 | 25.25587 | 55.35180 | 32 ft | 3 kts | 216° |
| 2026-05-09 01:46 | 25.25604 | 55.35200 | 32 ft | 3 kts | 259° |
| 2026-05-09 01:47 | 25.25600 | 55.35223 | 32 ft | 3 kts | 302° |
| 2026-05-09 01:47 | 25.25586 | 55.35248 | 32 ft | 2 kts | 302° |
| 2026-05-09 01:47 | 25.25584 | 55.35251 | 32 ft | 0 kts | 302° |
| 2026-05-09 01:49 | 25.25586 | 55.35249 | 32 ft | 2 kts | 302° |
| 2026-05-09 01:49 | 25.25601 | 55.35221 | 32 ft | 5 kts | 302° |
| 2026-05-09 01:50 | 25.25622 | 55.35184 | 32 ft | 9 kts | 303° |
| 2026-05-09 01:50 | 25.25711 | 55.35173 | 30 ft | 18 kts | 28° |
| 2026-05-09 01:50 | 25.25818 | 55.35248 | 29 ft | 18 kts | 31° |
| 2026-05-09 01:50 | 25.25927 | 55.35320 | 30 ft | 18 kts | 31° |
| 2026-05-09 01:51 | 25.26004 | 55.35428 | 26 ft | 18 kts | 71° |
| 2026-05-09 01:51 | 25.25985 | 55.35562 | 27 ft | 18 kts | 121° |
| 2026-05-09 01:51 | 25.25918 | 55.35681 | 26 ft | 18 kts | 121° |
| 2026-05-09 01:51 | 25.25852 | 55.35799 | 27 ft | 18 kts | 122° |
| 2026-05-09 01:52 | 25.25784 | 55.35920 | 27 ft | 18 kts | 122° |
| 2026-05-09 01:52 | 25.25717 | 55.36039 | 27 ft | 18 kts | 122° |
| 2026-05-09 01:52 | 25.25650 | 55.36159 | 27 ft | 18 kts | 121° |
| 2026-05-09 01:52 | 25.25583 | 55.36277 | 27 ft | 18 kts | 122° |
| 2026-05-09 01:53 | 25.25515 | 55.36397 | 27 ft | 18 kts | 122° |
| 2026-05-09 01:53 | 25.25448 | 55.36516 | 27 ft | 18 kts | 122° |
| 2026-05-09 01:53 | 25.25382 | 55.36635 | 26 ft | 18 kts | 121° |
| 2026-05-09 01:53 | 25.25315 | 55.36754 | 26 ft | 18 kts | 122° |
| 2026-05-09 01:54 | 25.25248 | 55.36873 | 27 ft | 18 kts | 122° |
| 2026-05-09 01:54 | 25.25181 | 55.36992 | 27 ft | 18 kts | 121° |
| 2026-05-09 01:54 | 25.25114 | 55.37112 | 28 ft | 18 kts | 122° |
| 2026-05-09 01:54 | 25.25046 | 55.37231 | 28 ft | 18 kts | 122° |
| 2026-05-09 01:55 | 25.24980 | 55.37350 | 28 ft | 18 kts | 122° |
| 2026-05-09 01:55 | 25.24912 | 55.37469 | 28 ft | 18 kts | 122° |
| 2026-05-09 01:55 | 25.24845 | 55.37588 | 28 ft | 18 kts | 122° |
| 2026-05-09 01:55 | 25.24778 | 55.37708 | 28 ft | 18 kts | 122° |
| 2026-05-09 01:56 | 25.24711 | 55.37826 | 27 ft | 18 kts | 122° |
| 2026-05-09 01:56 | 25.24681 | 55.37953 | 27 ft | 18 kts | 58° |
| 2026-05-09 01:56 | 25.24789 | 55.38016 | 30 ft | 17 kts | 353° |
| 2026-05-09 01:56 | 25.24852 | 55.37943 | 30 ft | 14 kts | 302° |
| 2026-05-09 01:57 | 25.24977 | 55.37719 | 30 ft | 68 kts | 302° |
| 2026-05-09 01:57 | 25.25353 | 55.37039 | 30 ft | 138 kts | 301° |
| 2026-05-09 01:57 | 25.25926 | 55.35969 | 31 ft | 190 kts | 296° |
| 2026-05-09 01:57 | 25.26357 | 55.35109 | 334 ft | 190 kts | 298° |
| 2026-05-09 01:58 | 25.27351 | 55.33332 | 782 ft | 216 kts | 301° |
| 2026-05-09 01:58 | 25.28138 | 55.31959 | 1656 ft | 206 kts | 302° |
| 2026-05-09 01:58 | 25.28872 | 55.30669 | 2527 ft | 194 kts | 300° |
| 2026-05-09 01:58 | 25.29222 | 55.29295 | 3087 ft | 190 kts | 266° |
| 2026-05-09 01:59 | 25.28871 | 55.27834 | 3358 ft | 209 kts | 251° |
| 2026-05-09 01:59 | 25.28455 | 55.26798 | 3548 ft | 220 kts | 248° |
| 2026-05-09 01:59 | 25.27792 | 55.25245 | 4018 ft | 227 kts | 247° |
| 2026-05-09 01:59 | 25.27107 | 55.23650 | 4602 ft | 231 kts | 247° |
| 2026-05-09 02:00 | 25.26417 | 55.22043 | 5244 ft | 233 kts | 246° |
| 2026-05-09 02:00 | 25.25725 | 55.20432 | 5869 ft | 234 kts | 246° |
| 2026-05-09 02:00 | 25.25028 | 55.18803 | 6507 ft | 235 kts | 244° |
| 2026-05-09 02:00 | 25.24001 | 55.17400 | 6971 ft | 242 kts | 215° |
| 2026-05-09 02:01 | 25.22389 | 55.16739 | 7432 ft | 255 kts | 187° |
| 2026-05-09 02:01 | 25.20597 | 55.16778 | 7925 ft | 261 kts | 176° |
| 2026-05-09 02:01 | 25.18851 | 55.17388 | 8408 ft | 271 kts | 147° |
| 2026-05-09 02:01 | 25.17589 | 55.18933 | 9054 ft | 274 kts | 121° |
| 2026-05-09 02:02 | 25.16693 | 55.20798 | 9618 ft | 280 kts | 120° |
| 2026-05-09 02:02 | 25.15765 | 55.22750 | 9981 ft | 294 kts | 120° |
| 2026-05-09 02:02 | 25.14800 | 55.24774 | 10533 ft | 301 kts | 120° |
| 2026-05-09 02:02 | 25.13819 | 55.26826 | 11235 ft | 303 kts | 119° |
| 2026-05-09 02:03 | 25.12839 | 55.28879 | 12080 ft | 302 kts | 119° |
| 2026-05-09 02:03 | 25.11859 | 55.30921 | 13007 ft | 301 kts | 118° |
| 2026-05-09 02:03 | 25.10874 | 55.32968 | 13827 ft | 303 kts | 118° |
| 2026-05-09 02:03 | 25.09948 | 55.35070 | 14563 ft | 307 kts | 115° |
| 2026-05-09 02:04 | 25.09067 | 55.37247 | 15289 ft | 312 kts | 115° |
| 2026-05-09 02:04 | 25.08174 | 55.39452 | 16029 ft | 316 kts | 116° |
| 2026-05-09 02:04 | 25.07274 | 55.41656 | 16759 ft | 320 kts | 116° |
| 2026-05-09 02:04 | 25.06364 | 55.43972 | 17194 ft | 338 kts | 115° |
| 2026-05-09 02:05 | 25.05416 | 55.46451 | 17357 ft | 362 kts | 115° |
| 2026-05-09 02:05 | 25.04409 | 55.49092 | 17524 ft | 384 kts | 115° |
| 2026-05-09 02:05 | 25.03343 | 55.51869 | 17723 ft | 403 kts | 115° |
| 2026-05-09 02:05 | 25.02233 | 55.54749 | 18167 ft | 413 kts | 115° |
| 2026-05-09 02:06 | 25.00987 | 55.57583 | 18642 ft | 419 kts | 121° |
| 2026-05-09 02:06 | 24.99454 | 55.60379 | 19222 ft | 422 kts | 124° |
| 2026-05-09 02:06 | 24.97998 | 55.62897 | 19766 ft | 426 kts | 124° |
| 2026-05-09 02:07 | 24.94895 | 55.68490 | 20905 ft | 435 kts | 123° |
| 2026-05-09 02:07 | 24.93329 | 55.71297 | 21410 ft | 439 kts | 126° |
| 2026-05-09 02:07 | 24.91551 | 55.74051 | 21945 ft | 442 kts | 129° |
| 2026-05-09 02:07 | 24.89685 | 55.76759 | 22492 ft | 446 kts | 130° |
| 2026-05-09 02:08 | 24.87805 | 55.79490 | 23045 ft | 450 kts | 129° |
| 2026-05-09 02:08 | 24.85932 | 55.82275 | 23545 ft | 454 kts | 129° |
| 2026-05-09 02:08 | 24.84078 | 55.85069 | 23997 ft | 457 kts | 129° |
| 2026-05-09 02:08 | 24.82190 | 55.87898 | 24437 ft | 461 kts | 129° |
| 2026-05-09 02:09 | 24.80151 | 55.90595 | 24750 ft | 458 kts | 141° |
| 2026-05-09 02:09 | 24.77503 | 55.92529 | 25070 ft | 457 kts | 158° |
| 2026-05-09 02:09 | 24.74492 | 55.93598 | 25505 ft | 455 kts | 172° |
| 2026-05-09 02:09 | 24.71354 | 55.93810 | 25974 ft | 453 kts | 184° |
| 2026-05-09 02:10 | 24.68200 | 55.93604 | 26432 ft | 454 kts | 185° |
| 2026-05-09 02:10 | 24.65034 | 55.93431 | 26857 ft | 455 kts | 186° |
| 2026-05-09 02:10 | 24.61905 | 55.92854 | 27167 ft | 458 kts | 198° |
| 2026-05-09 02:10 | 24.58929 | 55.91590 | 27551 ft | 460 kts | 207° |
| 2026-05-09 02:11 | 24.56174 | 55.89798 | 27989 ft | 461 kts | 218° |
| 2026-05-09 02:11 | 24.53744 | 55.87513 | 28420 ft | 463 kts | 222° |
| 2026-05-09 02:11 | 24.51350 | 55.85126 | 28843 ft | 465 kts | 222° |
| 2026-05-09 02:11 | 24.48947 | 55.82735 | 29218 ft | 468 kts | 222° |
| 2026-05-09 02:12 | 24.46512 | 55.80348 | 29582 ft | 470 kts | 222° |
| 2026-05-09 02:12 | 24.44058 | 55.77975 | 29952 ft | 472 kts | 221° |
| 2026-05-09 02:12 | 24.41589 | 55.75607 | 30389 ft | 470 kts | 221° |
| 2026-05-09 02:12 | 24.39126 | 55.73250 | 30858 ft | 468 kts | 221° |
| 2026-05-09 02:13 | 24.36679 | 55.70907 | 31329 ft | 466 kts | 221° |
| 2026-05-09 02:13 | 24.34246 | 55.68561 | 31773 ft | 465 kts | 222° |
| 2026-05-09 02:13 | 24.31828 | 55.66224 | 32199 ft | 464 kts | 222° |
| 2026-05-09 02:13 | 24.29378 | 55.63908 | 32641 ft | 463 kts | 219° |
| 2026-05-09 02:14 | 24.26719 | 55.61937 | 33004 ft | 465 kts | 211° |
| 2026-05-09 02:14 | 24.23838 | 55.60304 | 33350 ft | 466 kts | 206° |
| 2026-05-09 02:14 | 24.20824 | 55.58981 | 33763 ft | 467 kts | 199° |
| 2026-05-09 02:14 | 24.17688 | 55.58014 | 33875 ft | 472 kts | 197° |
| 2026-05-09 02:15 | 24.14505 | 55.57116 | 33882 ft | 472 kts | 197° |
| 2026-05-09 02:15 | 24.08185 | 55.55326 | 33868 ft | 466 kts | 197° |
| 2026-05-09 02:16 | 24.01939 | 55.53483 | 33877 ft | 465 kts | 198° |
| 2026-05-09 02:16 | 23.95739 | 55.51638 | 33878 ft | 464 kts | 198° |
| 2026-05-09 02:17 | 23.89508 | 55.49781 | 33873 ft | 465 kts | 198° |
| 2026-05-09 02:17 | 23.83269 | 55.47927 | 33876 ft | 465 kts | 198° |
| 2026-05-09 02:18 | 23.77031 | 55.46067 | 33872 ft | 465 kts | 198° |
| 2026-05-09 02:18 | 23.70771 | 55.44201 | 33866 ft | 466 kts | 198° |
| 2026-05-09 02:19 | 23.64513 | 55.42338 | 33872 ft | 467 kts | 198° |
| 2026-05-09 02:19 | 23.58283 | 55.40485 | 33869 ft | 467 kts | 197° |
| 2026-05-09 02:20 | 23.51813 | 55.39353 | 33871 ft | 472 kts | 183° |
| 2026-05-09 02:20 | 23.45238 | 55.40160 | 34055 ft | 483 kts | 168° |
| 2026-05-09 02:20 | 23.42002 | 55.41143 | 34406 ft | 482 kts | 167° |
| 2026-05-09 02:21 | 23.38796 | 55.42164 | 34791 ft | 479 kts | 167° |
| 2026-05-09 02:21 | 23.32418 | 55.44237 | 34865 ft | 481 kts | 167° |
| 2026-05-09 02:22 | 23.26051 | 55.46279 | 34855 ft | 474 kts | 167° |
| 2026-05-09 02:22 | 23.19720 | 55.48281 | 34873 ft | 474 kts | 167° |
| 2026-05-09 02:23 | 23.13390 | 55.50275 | 34870 ft | 474 kts | 167° |
| 2026-05-09 02:23 | 23.07045 | 55.52276 | 34865 ft | 475 kts | 167° |
| 2026-05-09 02:24 | 23.00690 | 55.54265 | 34867 ft | 476 kts | 167° |
| 2026-05-09 02:24 | 22.94394 | 55.56185 | 34864 ft | 477 kts | 167° |
| 2026-05-09 02:25 | 22.88002 | 55.58127 | 34863 ft | 478 kts | 167° |
| 2026-05-09 02:25 | 22.81591 | 55.60082 | 34863 ft | 479 kts | 167° |
| 2026-05-09 02:26 | 22.75181 | 55.62037 | 34868 ft | 479 kts | 167° |
| 2026-05-09 02:26 | 22.68767 | 55.63992 | 34855 ft | 479 kts | 167° |
| 2026-05-09 02:27 | 22.62350 | 55.65945 | 34862 ft | 479 kts | 167° |
| 2026-05-09 02:27 | 22.55936 | 55.67907 | 34864 ft | 479 kts | 167° |
| 2026-05-09 02:28 | 22.49534 | 55.69871 | 34868 ft | 478 kts | 167° |
| 2026-05-09 02:28 | 22.43133 | 55.71832 | 34861 ft | 478 kts | 167° |
| 2026-05-09 02:29 | 22.36729 | 55.73791 | 34870 ft | 478 kts | 167° |
| 2026-05-09 02:29 | 22.30345 | 55.75742 | 34868 ft | 478 kts | 167° |
| 2026-05-09 02:30 | 22.23878 | 55.77376 | 34867 ft | 475 kts | 175° |
| 2026-05-09 02:30 | 22.17311 | 55.78036 | 34864 ft | 474 kts | 178° |
| 2026-05-09 02:31 | 22.10727 | 55.78643 | 34867 ft | 475 kts | 177° |
| 2026-05-09 02:31 | 22.04133 | 55.79288 | 34871 ft | 476 kts | 177° |
| 2026-05-09 02:32 | 21.97558 | 55.79950 | 34869 ft | 477 kts | 177° |
| 2026-05-09 02:32 | 21.90944 | 55.80618 | 34866 ft | 478 kts | 176° |
| 2026-05-09 02:33 | 21.84314 | 55.81284 | 34870 ft | 478 kts | 176° |
| 2026-05-09 02:33 | 21.77685 | 55.81949 | 34871 ft | 479 kts | 176° |
| 2026-05-09 02:34 | 21.71054 | 55.82614 | 34868 ft | 479 kts | 176° |
| 2026-05-09 02:34 | 21.64422 | 55.83269 | 34859 ft | 478 kts | 176° |
| 2026-05-09 02:35 | 21.57795 | 55.83915 | 34866 ft | 478 kts | 176° |
| 2026-05-09 02:35 | 21.51173 | 55.84561 | 34869 ft | 478 kts | 176° |
| 2026-05-09 02:36 | 21.44570 | 55.85205 | 34871 ft | 478 kts | 176° |
| 2026-05-09 02:36 | 21.37950 | 55.85852 | 34872 ft | 478 kts | 176° |
| 2026-05-09 02:37 | 21.31331 | 55.86497 | 34870 ft | 478 kts | 176° |
| 2026-05-09 02:37 | 21.24751 | 55.87137 | 34872 ft | 478 kts | 177° |
| 2026-05-09 02:38 | 21.18092 | 55.87777 | 34871 ft | 478 kts | 177° |
| 2026-05-09 02:38 | 21.11514 | 55.88409 | 34865 ft | 478 kts | 176° |
| 2026-05-09 02:39 | 21.04900 | 55.89044 | 34870 ft | 478 kts | 176° |
| 2026-05-09 02:39 | 20.98314 | 55.89676 | 34877 ft | 478 kts | 176° |
| 2026-05-09 02:40 | 20.91691 | 55.90312 | 34873 ft | 478 kts | 176° |
| 2026-05-09 02:40 | 20.85056 | 55.90948 | 34869 ft | 478 kts | 176° |
| 2026-05-09 02:41 | 20.78426 | 55.91598 | 34874 ft | 478 kts | 176° |
| 2026-05-09 02:41 | 20.71792 | 55.92253 | 34877 ft | 479 kts | 176° |
| 2026-05-09 02:42 | 20.65118 | 55.92909 | 34872 ft | 479 kts | 176° |
| 2026-05-09 02:42 | 20.58491 | 55.93559 | 34872 ft | 479 kts | 176° |
| 2026-05-09 02:43 | 20.53027 | 55.94094 | 34871 ft | 478 kts | 176° |
| 2026-05-09 02:43 | 20.45276 | 55.94853 | 34871 ft | 478 kts | 176° |
| 2026-05-09 02:44 | 20.39771 | 55.95391 | 34872 ft | 478 kts | 176° |
| 2026-05-09 02:44 | 20.33148 | 55.96039 | 34872 ft | 478 kts | 176° |
| 2026-05-09 02:45 | 20.26524 | 55.96678 | 34869 ft | 477 kts | 176° |
| 2026-05-09 02:45 | 20.19905 | 55.97305 | 34870 ft | 477 kts | 176° |
| 2026-05-09 02:46 | 20.13301 | 55.97933 | 34875 ft | 478 kts | 176° |
| 2026-05-09 02:46 | 20.06637 | 55.98486 | 34872 ft | 477 kts | 179° |
| 2026-05-09 02:47 | 20.00045 | 55.98652 | 34872 ft | 477 kts | 180° |
| 2026-05-09 02:47 | 19.93457 | 55.98774 | 34876 ft | 478 kts | 180° |
| 2026-05-09 02:48 | 19.86807 | 55.98921 | 34876 ft | 478 kts | 180° |
| 2026-05-09 02:48 | 19.80149 | 55.99083 | 34880 ft | 479 kts | 180° |
| 2026-05-09 02:49 | 19.73483 | 55.99246 | 34874 ft | 479 kts | 179° |
| 2026-05-09 02:49 | 19.66814 | 55.99408 | 34881 ft | 480 kts | 179° |
| 2026-05-09 02:50 | 19.60140 | 55.99569 | 34880 ft | 480 kts | 179° |
| 2026-05-09 02:50 | 19.53466 | 55.99528 | 34870 ft | 479 kts | 188° |
| 2026-05-09 02:51 | 19.47088 | 55.97681 | 34835 ft | 474 kts | 204° |
| 2026-05-09 02:51 | 19.44159 | 55.96083 | 34507 ft | 475 kts | 210° |
| 2026-05-09 02:51 | 19.41292 | 55.94309 | 34105 ft | 480 kts | 211° |
| 2026-05-09 02:51 | 19.38395 | 55.92486 | 33964 ft | 487 kts | 211° |
| 2026-05-09 02:52 | 19.35482 | 55.90662 | 33896 ft | 486 kts | 211° |
| 2026-05-09 02:52 | 19.29683 | 55.87097 | 33882 ft | 480 kts | 210° |
| 2026-05-09 02:53 | 19.23900 | 55.83592 | 33900 ft | 481 kts | 210° |
| 2026-05-09 02:53 | 19.18042 | 55.80049 | 33894 ft | 482 kts | 210° |
| 2026-05-09 02:54 | 19.12216 | 55.76524 | 33898 ft | 483 kts | 210° |
| 2026-05-09 02:54 | 19.06385 | 55.72997 | 33904 ft | 483 kts | 210° |
| 2026-05-09 02:55 | 19.00547 | 55.69478 | 33897 ft | 483 kts | 210° |
| 2026-05-09 02:55 | 18.94789 | 55.66017 | 33907 ft | 483 kts | 210° |
| 2026-05-09 02:56 | 18.88939 | 55.62503 | 33896 ft | 483 kts | 210° |
| 2026-05-09 02:56 | 18.83099 | 55.58995 | 33906 ft | 483 kts | 210° |
| 2026-05-09 02:57 | 18.77255 | 55.55487 | 33901 ft | 483 kts | 210° |
| 2026-05-09 02:57 | 18.71413 | 55.51983 | 33906 ft | 483 kts | 210° |
| 2026-05-09 02:58 | 18.65576 | 55.48485 | 33910 ft | 483 kts | 210° |
| 2026-05-09 02:58 | 18.59736 | 55.44988 | 33910 ft | 484 kts | 210° |
| 2026-05-09 02:59 | 18.53875 | 55.41481 | 33913 ft | 484 kts | 210° |
| 2026-05-09 02:59 | 18.48021 | 55.37981 | 33913 ft | 484 kts | 210° |
| 2026-05-09 03:00 | 18.42152 | 55.34475 | 33917 ft | 484 kts | 210° |
| 2026-05-09 03:00 | 18.36292 | 55.30976 | 33918 ft | 485 kts | 210° |
| 2026-05-09 03:01 | 18.24497 | 55.23939 | 33921 ft | 484 kts | 210° |
| 2026-05-09 03:02 | 18.18629 | 55.20440 | 33925 ft | 484 kts | 210° |
| 2026-05-09 03:02 | 18.12747 | 55.17076 | 33918 ft | 484 kts | 205° |
| 2026-05-09 03:03 | 18.06564 | 55.14293 | 33932 ft | 483 kts | 203° |
| 2026-05-09 03:03 | 18.00337 | 55.11555 | 33931 ft | 483 kts | 203° |
| 2026-05-09 03:04 | 17.94199 | 55.08825 | 33929 ft | 483 kts | 203° |
| 2026-05-09 03:04 | 17.88011 | 55.06053 | 33932 ft | 483 kts | 203° |
| 2026-05-09 03:05 | 17.81825 | 55.03278 | 33937 ft | 484 kts | 203° |
| 2026-05-09 03:05 | 17.75689 | 55.00529 | 33943 ft | 484 kts | 203° |
| 2026-05-09 03:06 | 17.69685 | 54.97844 | 33936 ft | 484 kts | 203° |
| 2026-05-09 03:06 | 17.63498 | 54.95078 | 33939 ft | 483 kts | 203° |
| 2026-05-09 03:07 | 17.57312 | 54.92314 | 33939 ft | 483 kts | 203° |
| 2026-05-09 03:07 | 17.51128 | 54.89553 | 33952 ft | 483 kts | 203° |
| 2026-05-09 03:08 | 17.44937 | 54.86792 | 33952 ft | 483 kts | 203° |
| 2026-05-09 03:08 | 17.38762 | 54.84039 | 33949 ft | 483 kts | 203° |
| 2026-05-09 03:09 | 17.32567 | 54.81279 | 33952 ft | 483 kts | 203° |
| 2026-05-09 03:09 | 17.26436 | 54.78407 | 33952 ft | 483 kts | 208° |
| 2026-05-09 03:10 | 17.20730 | 54.74700 | 33950 ft | 483 kts | 213° |
| 2026-05-09 03:10 | 17.15105 | 54.70863 | 33939 ft | 482 kts | 213° |
| 2026-05-09 03:11 | 17.09503 | 54.67091 | 33943 ft | 482 kts | 212° |
| 2026-05-09 03:11 | 17.03862 | 54.63321 | 33929 ft | 482 kts | 212° |
| 2026-05-09 03:12 | 16.98252 | 54.59576 | 33925 ft | 482 kts | 212° |
| 2026-05-09 03:12 | 16.92609 | 54.55810 | 33929 ft | 481 kts | 212° |
| 2026-05-09 03:13 | 16.84144 | 54.50163 | 33908 ft | 481 kts | 212° |
| 2026-05-09 03:13 | 16.78497 | 54.46397 | 33907 ft | 482 kts | 212° |
| 2026-05-09 03:14 | 16.72851 | 54.42633 | 33894 ft | 482 kts | 212° |
| 2026-05-09 03:14 | 16.67195 | 54.38864 | 33893 ft | 482 kts | 212° |
| 2026-05-09 03:15 | 16.61538 | 54.35097 | 33896 ft | 482 kts | 212° |
| 2026-05-09 03:15 | 16.55921 | 54.31360 | 33894 ft | 482 kts | 212° |
| 2026-05-09 03:16 | 16.50268 | 54.27601 | 33905 ft | 482 kts | 212° |
| 2026-05-09 03:16 | 16.44606 | 54.23839 | 33905 ft | 482 kts | 212° |
| 2026-05-09 03:17 | 16.38945 | 54.20080 | 33906 ft | 482 kts | 212° |
| 2026-05-09 03:17 | 16.33291 | 54.16328 | 33906 ft | 482 kts | 212° |
| 2026-05-09 03:18 | 16.27640 | 54.12582 | 33909 ft | 481 kts | 212° |
| 2026-05-09 03:18 | 16.21987 | 54.08836 | 33911 ft | 482 kts | 212° |
| 2026-05-09 03:19 | 16.16339 | 54.05096 | 33920 ft | 482 kts | 212° |
| 2026-05-09 03:19 | 16.10675 | 54.01349 | 33926 ft | 482 kts | 212° |
| 2026-05-09 03:20 | 16.05198 | 53.97727 | 33931 ft | 482 kts | 212° |
| 2026-05-09 03:20 | 15.99566 | 53.94004 | 33925 ft | 482 kts | 212° |
| 2026-05-09 03:21 | 15.93911 | 53.90269 | 33926 ft | 481 kts | 212° |
| 2026-05-09 03:21 | 15.88265 | 53.86543 | 33925 ft | 481 kts | 212° |
| 2026-05-09 03:22 | 15.82625 | 53.82794 | 33925 ft | 481 kts | 212° |
| 2026-05-09 03:22 | 15.77002 | 53.79032 | 33923 ft | 481 kts | 212° |
| 2026-05-09 03:23 | 15.71373 | 53.75270 | 33930 ft | 481 kts | 212° |
| 2026-05-09 03:23 | 15.65738 | 53.71510 | 33930 ft | 481 kts | 212° |
| 2026-05-09 03:24 | 15.61055 | 53.68389 | 33925 ft | 481 kts | 212° |
| 2026-05-09 03:24 | 15.55419 | 53.64635 | 33925 ft | 481 kts | 212° |
| 2026-05-09 03:25 | 15.49809 | 53.60899 | 33861 ft | 473 kts | 212° |
| 2026-05-09 03:25 | 15.44241 | 53.57195 | 33929 ft | 481 kts | 212° |
| 2026-05-09 03:26 | 15.38540 | 53.53478 | 33932 ft | 484 kts | 211° |
| 2026-05-09 03:26 | 15.32813 | 53.49828 | 33925 ft | 483 kts | 211° |
| 2026-05-09 03:27 | 15.27092 | 53.46180 | 33927 ft | 482 kts | 211° |
| 2026-05-09 03:27 | 15.21402 | 53.42539 | 33928 ft | 481 kts | 211° |
| 2026-05-09 03:28 | 15.15704 | 53.38891 | 33928 ft | 481 kts | 211° |
| 2026-05-09 03:28 | 15.10015 | 53.35250 | 33929 ft | 481 kts | 211° |
| 2026-05-09 03:29 | 15.04327 | 53.31613 | 33929 ft | 481 kts | 211° |
| 2026-05-09 03:29 | 14.98696 | 53.28015 | 33929 ft | 481 kts | 211° |
| 2026-05-09 03:30 | 14.92993 | 53.24374 | 33930 ft | 481 kts | 211° |
| 2026-05-09 03:30 | 14.87345 | 53.20769 | 33933 ft | 482 kts | 211° |
| 2026-05-09 03:31 | 14.81797 | 53.17230 | 33863 ft | 474 kts | 211° |
| 2026-05-09 03:31 | 14.76132 | 53.13619 | 33933 ft | 482 kts | 211° |
| 2026-05-09 03:32 | 14.70407 | 53.09971 | 33933 ft | 485 kts | 211° |
| 2026-05-09 03:32 | 14.64689 | 53.06329 | 33927 ft | 483 kts | 211° |
| 2026-05-09 03:33 | 14.59008 | 53.02685 | 33928 ft | 482 kts | 212° |
| 2026-05-09 03:33 | 14.53455 | 52.99112 | 33936 ft | 482 kts | 211° |
| 2026-05-09 03:34 | 14.47805 | 52.95481 | 33930 ft | 481 kts | 211° |
| 2026-05-09 03:34 | 14.42121 | 52.91832 | 33932 ft | 481 kts | 211° |
| 2026-05-09 03:35 | 14.36431 | 52.88183 | 33932 ft | 482 kts | 211° |
| 2026-05-09 03:35 | 14.30738 | 52.84534 | 33932 ft | 482 kts | 211° |
| 2026-05-09 03:36 | 14.25065 | 52.80900 | 33931 ft | 482 kts | 211° |
| 2026-05-09 03:36 | 14.19366 | 52.77252 | 33932 ft | 482 kts | 211° |
| 2026-05-09 03:37 | 14.13678 | 52.73613 | 33934 ft | 483 kts | 211° |
| 2026-05-09 03:37 | 14.08044 | 52.70010 | 33934 ft | 482 kts | 211° |
| 2026-05-09 03:38 | 14.02298 | 52.66338 | 33931 ft | 482 kts | 211° |
| 2026-05-09 03:38 | 13.96607 | 52.62704 | 33932 ft | 482 kts | 211° |
| 2026-05-09 03:39 | 13.91053 | 52.59160 | 33934 ft | 482 kts | 211° |
| 2026-05-09 03:39 | 13.85342 | 52.55516 | 33934 ft | 482 kts | 211° |
| 2026-05-09 03:40 | 13.79646 | 52.51884 | 33935 ft | 482 kts | 211° |
| 2026-05-09 03:40 | 13.73950 | 52.48255 | 33929 ft | 481 kts | 211° |
| 2026-05-09 03:41 | 13.68273 | 52.44640 | 33933 ft | 480 kts | 211° |
| 2026-05-09 03:41 | 13.62607 | 52.41034 | 33934 ft | 479 kts | 211° |
| 2026-05-09 03:42 | 13.56987 | 52.37459 | 33929 ft | 478 kts | 211° |
| 2026-05-09 03:42 | 13.51335 | 52.33865 | 33937 ft | 478 kts | 211° |
| 2026-05-09 03:43 | 13.45725 | 52.30300 | 33933 ft | 478 kts | 211° |
| 2026-05-09 03:43 | 13.40067 | 52.26706 | 33934 ft | 478 kts | 211° |
| 2026-05-09 03:44 | 13.34385 | 52.23107 | 33932 ft | 478 kts | 211° |
| 2026-05-09 03:44 | 13.28748 | 52.19548 | 33929 ft | 478 kts | 211° |
| 2026-05-09 03:45 | 13.23047 | 52.15949 | 33930 ft | 478 kts | 211° |
| 2026-05-09 03:45 | 13.17388 | 52.12376 | 33932 ft | 478 kts | 211° |
| 2026-05-09 03:46 | 13.11726 | 52.08803 | 33923 ft | 478 kts | 211° |
| 2026-05-09 03:46 | 13.06063 | 52.05231 | 33931 ft | 478 kts | 211° |
| 2026-05-09 03:47 | 13.00400 | 52.01661 | 33930 ft | 478 kts | 211° |
| 2026-05-09 03:47 | 12.94966 | 51.98238 | 33925 ft | 478 kts | 211° |
| 2026-05-09 03:48 | 12.89310 | 51.94675 | 33937 ft | 477 kts | 211° |
| 2026-05-09 03:48 | 12.83650 | 51.91113 | 33924 ft | 477 kts | 211° |
| 2026-05-09 03:49 | 12.78011 | 51.87566 | 33926 ft | 477 kts | 211° |
| 2026-05-09 03:49 | 12.72391 | 51.84033 | 33930 ft | 477 kts | 211° |
| 2026-05-09 03:50 | 12.66716 | 51.80466 | 33921 ft | 478 kts | 211° |
| 2026-05-09 03:50 | 12.61071 | 51.76921 | 33922 ft | 478 kts | 211° |
| 2026-05-09 03:51 | 12.55429 | 51.73379 | 33927 ft | 478 kts | 211° |
| 2026-05-09 03:51 | 12.49770 | 51.69829 | 33918 ft | 479 kts | 210° |
| 2026-05-09 03:52 | 12.44076 | 51.66258 | 33926 ft | 478 kts | 210° |
| 2026-05-09 03:52 | 12.38430 | 51.62720 | 33924 ft | 478 kts | 211° |
| 2026-05-09 03:53 | 12.32702 | 51.59131 | 33917 ft | 478 kts | 211° |
| 2026-05-09 03:53 | 12.27063 | 51.55600 | 33927 ft | 478 kts | 211° |
| 2026-05-09 03:54 | 12.21378 | 51.52042 | 33917 ft | 478 kts | 211° |
| 2026-05-09 03:54 | 12.15851 | 51.48585 | 33916 ft | 478 kts | 211° |
| 2026-05-09 03:55 | 12.13030 | 51.46821 | 33797 ft | 479 kts | 211° |
| 2026-05-09 03:55 | 12.10235 | 51.45073 | 33886 ft | 471 kts | 211° |
| 2026-05-09 03:55 | 12.04618 | 51.41563 | 33926 ft | 477 kts | 211° |
| 2026-05-09 03:56 | 11.98949 | 51.38022 | 33921 ft | 479 kts | 211° |
| 2026-05-09 03:56 | 11.93261 | 51.34469 | 33928 ft | 480 kts | 210° |
| 2026-05-09 03:57 | 11.87636 | 51.30956 | 33917 ft | 480 kts | 211° |
| 2026-05-09 03:57 | 11.81933 | 51.27395 | 33929 ft | 481 kts | 211° |
| 2026-05-09 03:58 | 11.76227 | 51.23834 | 33924 ft | 481 kts | 211° |
| 2026-05-09 03:58 | 11.70518 | 51.20272 | 33931 ft | 481 kts | 211° |
| 2026-05-09 03:59 | 11.64833 | 51.16728 | 33934 ft | 481 kts | 210° |
| 2026-05-09 03:59 | 11.59120 | 51.13168 | 33944 ft | 481 kts | 210° |
| 2026-05-09 04:00 | 11.53407 | 51.09609 | 33939 ft | 481 kts | 210° |
| 2026-05-09 04:00 | 11.47706 | 51.06060 | 33957 ft | 481 kts | 210° |
| 2026-05-09 04:01 | 11.42012 | 51.02515 | 33958 ft | 480 kts | 210° |
| 2026-05-09 04:01 | 11.36555 | 50.99121 | 33949 ft | 480 kts | 210° |
| 2026-05-09 04:02 | 11.30858 | 50.95573 | 33965 ft | 480 kts | 210° |
| 2026-05-09 04:02 | 11.25167 | 50.92027 | 33962 ft | 481 kts | 210° |
| 2026-05-09 04:03 | 11.19450 | 50.88468 | 33970 ft | 481 kts | 210° |
| 2026-05-09 04:03 | 11.13733 | 50.84910 | 33971 ft | 481 kts | 210° |
| 2026-05-09 04:04 | 11.08024 | 50.81359 | 33967 ft | 481 kts | 210° |
| 2026-05-09 04:04 | 11.02324 | 50.77815 | 33973 ft | 481 kts | 210° |
| 2026-05-09 04:05 | 10.96638 | 50.74282 | 33964 ft | 481 kts | 210° |
| 2026-05-09 04:05 | 10.90929 | 50.70736 | 33966 ft | 481 kts | 210° |
| 2026-05-09 04:06 | 10.85212 | 50.67187 | 33968 ft | 481 kts | 210° |
| 2026-05-09 04:06 | 10.79509 | 50.63647 | 33964 ft | 481 kts | 210° |
| 2026-05-09 04:07 | 10.73792 | 50.60101 | 33974 ft | 481 kts | 210° |
| 2026-05-09 04:07 | 10.68071 | 50.56554 | 33969 ft | 482 kts | 210° |
| 2026-05-09 04:08 | 10.62348 | 50.53008 | 33969 ft | 482 kts | 210° |
| 2026-05-09 04:08 | 10.56650 | 50.49478 | 33973 ft | 482 kts | 210° |
| 2026-05-09 04:09 | 10.50912 | 50.45925 | 33964 ft | 483 kts | 210° |
| 2026-05-09 04:09 | 10.45180 | 50.42377 | 33966 ft | 483 kts | 210° |
| 2026-05-09 04:10 | 10.39443 | 50.38828 | 33971 ft | 484 kts | 210° |
| 2026-05-09 04:10 | 10.33687 | 50.35269 | 33978 ft | 485 kts | 210° |
| 2026-05-09 04:11 | 10.27916 | 50.31702 | 33978 ft | 486 kts | 210° |
| 2026-05-09 04:11 | 10.23113 | 50.28734 | 33975 ft | 487 kts | 210° |
| 2026-05-09 04:12 | 10.17326 | 50.25161 | 33975 ft | 487 kts | 210° |
| 2026-05-09 04:12 | 10.11523 | 50.21578 | 33979 ft | 487 kts | 210° |
| 2026-05-09 04:13 | 10.05746 | 50.18013 | 33980 ft | 487 kts | 210° |
| 2026-05-09 04:13 | 9.99935 | 50.14428 | 33988 ft | 487 kts | 210° |
| 2026-05-09 04:14 | 9.94170 | 50.10874 | 33992 ft | 488 kts | 210° |
| 2026-05-09 04:14 | 9.88362 | 50.07294 | 33987 ft | 488 kts | 210° |
| 2026-05-09 04:15 | 9.82572 | 50.03727 | 33996 ft | 488 kts | 210° |
| 2026-05-09 04:15 | 9.76766 | 50.00152 | 33994 ft | 488 kts | 210° |
| 2026-05-09 04:16 | 9.71214 | 49.96735 | 34003 ft | 488 kts | 210° |
| 2026-05-09 04:16 | 9.65391 | 49.93152 | 33999 ft | 488 kts | 210° |
| 2026-05-09 04:17 | 9.59592 | 49.89585 | 33997 ft | 488 kts | 210° |
| 2026-05-09 04:17 | 9.53800 | 49.86024 | 34000 ft | 488 kts | 210° |
| 2026-05-09 04:18 | 9.47991 | 49.82453 | 33998 ft | 488 kts | 210° |
| 2026-05-09 04:18 | 9.42180 | 49.78883 | 33997 ft | 488 kts | 210° |
| 2026-05-09 04:19 | 9.36387 | 49.75325 | 33998 ft | 488 kts | 210° |
| 2026-05-09 04:19 | 9.30572 | 49.71755 | 33997 ft | 488 kts | 210° |
| 2026-05-09 04:20 | 9.24777 | 49.68198 | 33996 ft | 488 kts | 210° |
| 2026-05-09 04:20 | 9.18960 | 49.64634 | 33998 ft | 488 kts | 210° |
| 2026-05-09 04:21 | 9.13160 | 49.61087 | 34000 ft | 488 kts | 210° |
| 2026-05-09 04:22 | 9.04444 | 49.55758 | 34001 ft | 488 kts | 210° |
| 2026-05-09 04:22 | 8.98666 | 49.52225 | 33997 ft | 488 kts | 210° |
| 2026-05-09 04:23 | 8.92883 | 49.48691 | 34000 ft | 488 kts | 210° |
| 2026-05-09 04:23 | 8.87081 | 49.45146 | 34000 ft | 488 kts | 210° |
| 2026-05-09 04:24 | 8.81267 | 49.41596 | 33937 ft | 489 kts | 210° |
| 2026-05-09 04:24 | 8.75450 | 49.38043 | 33996 ft | 487 kts | 210° |
| 2026-05-09 04:25 | 8.69639 | 49.34496 | 34003 ft | 489 kts | 210° |
| 2026-05-09 04:25 | 8.63816 | 49.30944 | 34003 ft | 490 kts | 210° |
| 2026-05-09 04:26 | 8.58002 | 49.27399 | 33995 ft | 491 kts | 210° |
| 2026-05-09 04:26 | 8.52149 | 49.23833 | 33997 ft | 491 kts | 210° |
| 2026-05-09 04:27 | 8.46309 | 49.20274 | 33992 ft | 491 kts | 210° |
| 2026-05-09 04:27 | 8.40466 | 49.16714 | 33989 ft | 490 kts | 210° |
| 2026-05-09 04:28 | 8.34637 | 49.13165 | 33994 ft | 489 kts | 210° |
| 2026-05-09 04:28 | 8.28805 | 49.09614 | 33992 ft | 489 kts | 210° |
| 2026-05-09 04:29 | 8.22973 | 49.06064 | 34002 ft | 489 kts | 210° |
| 2026-05-09 04:29 | 8.17154 | 49.02524 | 34001 ft | 489 kts | 209° |
| 2026-05-09 04:30 | 8.11584 | 48.99137 | 34003 ft | 489 kts | 209° |
| 2026-05-09 04:30 | 8.05755 | 48.95593 | 33996 ft | 490 kts | 209° |
| 2026-05-09 04:31 | 7.99941 | 48.92059 | 34012 ft | 490 kts | 210° |
| 2026-05-09 04:31 | 7.94115 | 48.88519 | 34006 ft | 490 kts | 210° |
| 2026-05-09 04:32 | 7.88279 | 48.84975 | 34005 ft | 490 kts | 210° |
| 2026-05-09 04:32 | 7.82425 | 48.81420 | 34013 ft | 490 kts | 210° |
| 2026-05-09 04:33 | 7.76578 | 48.77871 | 33999 ft | 491 kts | 210° |
| 2026-05-09 04:33 | 7.70728 | 48.74322 | 34003 ft | 490 kts | 210° |
| 2026-05-09 04:34 | 7.64884 | 48.70777 | 34008 ft | 490 kts | 210° |
| 2026-05-09 04:34 | 7.59023 | 48.67222 | 33993 ft | 491 kts | 210° |
| 2026-05-09 04:35 | 7.53172 | 48.63676 | 33998 ft | 491 kts | 210° |
| 2026-05-09 04:35 | 7.47344 | 48.60144 | 33998 ft | 490 kts | 210° |
| 2026-05-09 04:36 | 7.41490 | 48.56596 | 33997 ft | 490 kts | 210° |
| 2026-05-09 04:36 | 7.35638 | 48.53051 | 33990 ft | 490 kts | 210° |
| 2026-05-09 04:37 | 7.29857 | 48.49522 | 33988 ft | 490 kts | 210° |
| 2026-05-09 04:37 | 7.24007 | 48.45906 | 33984 ft | 490 kts | 210° |
| 2026-05-09 04:38 | 7.18221 | 48.42327 | 33984 ft | 490 kts | 210° |
| 2026-05-09 04:38 | 7.12419 | 48.38745 | 33984 ft | 490 kts | 211° |
| 2026-05-09 04:39 | 7.06573 | 48.35141 | 33984 ft | 490 kts | 211° |
| 2026-05-09 04:39 | 7.00754 | 48.31556 | 33978 ft | 490 kts | 210° |
| 2026-05-09 04:40 | 6.94979 | 48.27999 | 33981 ft | 490 kts | 211° |
| 2026-05-09 04:40 | 6.89163 | 48.24416 | 33975 ft | 490 kts | 210° |
| 2026-05-09 04:41 | 6.83395 | 48.20864 | 33978 ft | 489 kts | 210° |
| 2026-05-09 04:41 | 6.77585 | 48.17288 | 33973 ft | 489 kts | 210° |
| 2026-05-09 04:42 | 6.71791 | 48.13723 | 33972 ft | 487 kts | 210° |
| 2026-05-09 04:42 | 6.66003 | 48.10162 | 33977 ft | 486 kts | 211° |
| 2026-05-09 04:43 | 6.60255 | 48.06626 | 33978 ft | 485 kts | 210° |
| 2026-05-09 04:43 | 6.54457 | 48.03062 | 33974 ft | 485 kts | 210° |
| 2026-05-09 04:44 | 6.49011 | 47.99713 | 33985 ft | 485 kts | 210° |
| 2026-05-09 04:44 | 6.43664 | 47.96428 | 33976 ft | 484 kts | 210° |
| 2026-05-09 04:45 | 6.37927 | 47.92904 | 33973 ft | 484 kts | 210° |
| 2026-05-09 04:45 | 6.32186 | 47.89377 | 33972 ft | 483 kts | 211° |
| 2026-05-09 04:46 | 6.26446 | 47.85852 | 33977 ft | 483 kts | 210° |
| 2026-05-09 04:46 | 6.20712 | 47.82332 | 33972 ft | 483 kts | 210° |
| 2026-05-09 04:47 | 6.15107 | 47.78892 | 33976 ft | 483 kts | 210° |
| 2026-05-09 04:47 | 6.09375 | 47.75375 | 33975 ft | 483 kts | 211° |
| 2026-05-09 04:48 | 6.03633 | 47.71852 | 33977 ft | 483 kts | 210° |
| 2026-05-09 04:48 | 5.97903 | 47.68338 | 33973 ft | 483 kts | 210° |
| 2026-05-09 04:49 | 5.92197 | 47.64839 | 33972 ft | 483 kts | 210° |
| 2026-05-09 04:49 | 5.86465 | 47.61326 | 33975 ft | 483 kts | 210° |
| 2026-05-09 04:50 | 5.80736 | 47.57814 | 33969 ft | 483 kts | 210° |
| 2026-05-09 04:50 | 5.74989 | 47.54293 | 33968 ft | 483 kts | 211° |
| 2026-05-09 04:51 | 5.69265 | 47.50785 | 33975 ft | 483 kts | 210° |
| 2026-05-09 04:51 | 5.63511 | 47.47267 | 33989 ft | 483 kts | 210° |
| 2026-05-09 04:51 | 5.60626 | 47.45522 | 34118 ft | 487 kts | 210° |
| 2026-05-09 04:52 | 5.57717 | 47.43768 | 34421 ft | 487 kts | 209° |
| 2026-05-09 04:52 | 5.54834 | 47.42032 | 34961 ft | 482 kts | 209° |
| 2026-05-09 04:52 | 5.51961 | 47.40300 | 35359 ft | 481 kts | 210° |
| 2026-05-09 04:52 | 5.49093 | 47.38572 | 35644 ft | 482 kts | 210° |
| 2026-05-09 04:53 | 5.46223 | 47.36840 | 36008 ft | 481 kts | 210° |
| 2026-05-09 04:53 | 5.40453 | 47.33357 | 35962 ft | 483 kts | 210° |
| 2026-05-09 04:54 | 5.34728 | 47.29900 | 35958 ft | 478 kts | 210° |
| 2026-05-09 04:54 | 5.29054 | 47.26475 | 35956 ft | 477 kts | 210° |
| 2026-05-09 04:55 | 5.23365 | 47.23043 | 35976 ft | 477 kts | 210° |
| 2026-05-09 04:55 | 5.18621 | 47.20182 | 35956 ft | 478 kts | 210° |
| 2026-05-09 04:56 | 5.11983 | 47.16178 | 35953 ft | 480 kts | 210° |
| 2026-05-09 04:56 | 5.06291 | 47.12745 | 35956 ft | 481 kts | 210° |
| 2026-05-09 04:57 | 5.01474 | 47.09842 | 35956 ft | 481 kts | 211° |
| 2026-05-09 04:57 | 4.95797 | 47.06420 | 35954 ft | 481 kts | 210° |
| 2026-05-09 04:58 | 4.90026 | 47.02942 | 35975 ft | 481 kts | 209° |
| 2026-05-09 04:58 | 4.84526 | 46.99628 | 35973 ft | 480 kts | 210° |
| 2026-05-09 04:59 | 4.78791 | 46.96172 | 35955 ft | 480 kts | 210° |
| 2026-05-09 04:59 | 4.73076 | 46.92730 | 35958 ft | 479 kts | 210° |
| 2026-05-09 05:00 | 4.67370 | 46.89293 | 35977 ft | 478 kts | 210° |
| 2026-05-09 05:00 | 4.61672 | 46.85863 | 35978 ft | 478 kts | 210° |
| 2026-05-09 05:01 | 4.55969 | 46.82430 | 35975 ft | 477 kts | 210° |
| 2026-05-09 05:01 | 4.50270 | 46.79001 | 35975 ft | 478 kts | 210° |
| 2026-05-09 05:02 | 4.44582 | 46.75578 | 35979 ft | 478 kts | 210° |
| 2026-05-09 05:02 | 4.38875 | 46.72145 | 35961 ft | 479 kts | 210° |
| 2026-05-09 05:03 | 4.33163 | 46.68709 | 35962 ft | 479 kts | 210° |
| 2026-05-09 05:03 | 4.27451 | 46.65273 | 35985 ft | 479 kts | 210° |
| 2026-05-09 05:04 | 4.21729 | 46.61833 | 35962 ft | 479 kts | 210° |
| 2026-05-09 05:04 | 4.16024 | 46.58403 | 35963 ft | 479 kts | 210° |
| 2026-05-09 05:05 | 4.10309 | 46.54967 | 35970 ft | 478 kts | 210° |
| 2026-05-09 05:05 | 4.04612 | 46.51544 | 35990 ft | 478 kts | 210° |
| 2026-05-09 05:06 | 3.98943 | 46.48137 | 35970 ft | 478 kts | 210° |
| 2026-05-09 05:06 | 3.93247 | 46.44715 | 35967 ft | 478 kts | 210° |
| 2026-05-09 05:07 | 3.87538 | 46.41286 | 35988 ft | 477 kts | 210° |
| 2026-05-09 05:07 | 3.81879 | 46.37887 | 35988 ft | 478 kts | 210° |
| 2026-05-09 05:08 | 3.76185 | 46.34468 | 35966 ft | 478 kts | 210° |
| 2026-05-09 05:08 | 3.70467 | 46.31034 | 35966 ft | 479 kts | 210° |
| 2026-05-09 05:09 | 3.64780 | 46.27620 | 35990 ft | 478 kts | 210° |
| 2026-05-09 05:09 | 3.59045 | 46.24178 | 35991 ft | 478 kts | 210° |
| 2026-05-09 05:10 | 3.53333 | 46.20750 | 35976 ft | 479 kts | 210° |
| 2026-05-09 05:10 | 3.47617 | 46.17320 | 35976 ft | 480 kts | 210° |
| 2026-05-09 05:11 | 3.41888 | 46.13883 | 35995 ft | 480 kts | 210° |
| 2026-05-09 05:11 | 3.36158 | 46.10446 | 35988 ft | 480 kts | 210° |
| 2026-05-09 05:12 | 3.30428 | 46.07008 | 35970 ft | 481 kts | 210° |
| 2026-05-09 05:12 | 3.24724 | 46.03587 | 35988 ft | 481 kts | 210° |
| 2026-05-09 05:13 | 3.18988 | 46.00148 | 35990 ft | 481 kts | 210° |
| 2026-05-09 05:13 | 3.13508 | 45.96862 | 35972 ft | 481 kts | 210° |
| 2026-05-09 05:14 | 3.07766 | 45.93420 | 35971 ft | 481 kts | 210° |
| 2026-05-09 05:14 | 3.02021 | 45.89976 | 35991 ft | 481 kts | 210° |
| 2026-05-09 05:15 | 2.96292 | 45.86542 | 35993 ft | 481 kts | 210° |
| 2026-05-09 05:15 | 2.90572 | 45.83115 | 35972 ft | 481 kts | 210° |
| 2026-05-09 05:16 | 2.84826 | 45.79671 | 35978 ft | 481 kts | 210° |
| 2026-05-09 05:16 | 2.79120 | 45.76253 | 35995 ft | 480 kts | 210° |
| 2026-05-09 05:17 | 2.73383 | 45.72816 | 35994 ft | 480 kts | 210° |
| 2026-05-09 05:17 | 2.67661 | 45.69389 | 35973 ft | 480 kts | 210° |
| 2026-05-09 05:18 | 2.61928 | 45.65955 | 35968 ft | 480 kts | 210° |
| 2026-05-09 05:18 | 2.56182 | 45.62514 | 35989 ft | 481 kts | 210° |
| 2026-05-09 05:19 | 2.50479 | 45.59099 | 35990 ft | 481 kts | 210° |
| 2026-05-09 05:19 | 2.44753 | 45.55671 | 35972 ft | 481 kts | 210° |
| 2026-05-09 05:20 | 2.39026 | 45.52241 | 35989 ft | 480 kts | 210° |
| 2026-05-09 05:20 | 2.33274 | 45.48798 | 35992 ft | 480 kts | 210° |
| 2026-05-09 05:21 | 2.27530 | 45.45360 | 35988 ft | 481 kts | 210° |
| 2026-05-09 05:21 | 2.21796 | 45.41927 | 35970 ft | 481 kts | 210° |
| 2026-05-09 05:22 | 2.16060 | 45.38494 | 35986 ft | 481 kts | 210° |
| 2026-05-09 05:22 | 2.10310 | 45.35053 | 35980 ft | 481 kts | 210° |
| 2026-05-09 05:23 | 2.04570 | 45.31617 | 35892 ft | 480 kts | 211° |
| 2026-05-09 05:23 | 1.98952 | 45.28178 | 35952 ft | 475 kts | 213° |
| 2026-05-09 05:24 | 1.93453 | 45.24492 | 35978 ft | 477 kts | 214° |
| 2026-05-09 05:24 | 1.87958 | 45.20743 | 35983 ft | 479 kts | 214° |
| 2026-05-09 05:25 | 1.82430 | 45.16992 | 35981 ft | 481 kts | 214° |
| 2026-05-09 05:25 | 1.74100 | 45.11373 | 35986 ft | 482 kts | 214° |
| 2026-05-09 05:26 | 1.68565 | 45.07645 | 35968 ft | 481 kts | 214° |
| 2026-05-09 05:26 | 1.63010 | 45.03902 | 35966 ft | 479 kts | 214° |
| 2026-05-09 05:27 | 1.57492 | 45.00184 | 35970 ft | 478 kts | 214° |
| 2026-05-09 05:27 | 1.52225 | 44.96635 | 35987 ft | 477 kts | 214° |
| 2026-05-09 05:28 | 1.46715 | 44.92922 | 35969 ft | 477 kts | 214° |
| 2026-05-09 05:28 | 1.41215 | 44.89217 | 35968 ft | 477 kts | 214° |
| 2026-05-09 05:29 | 1.35718 | 44.85513 | 35969 ft | 477 kts | 214° |
| 2026-05-09 05:29 | 1.30204 | 44.81799 | 35987 ft | 477 kts | 214° |
| 2026-05-09 05:30 | 1.27461 | 44.79951 | 35872 ft | 477 kts | 214° |
| 2026-05-09 05:30 | 1.24737 | 44.78117 | 35935 ft | 470 kts | 214° |
| 2026-05-09 05:30 | 1.19288 | 44.74446 | 35968 ft | 477 kts | 214° |
| 2026-05-09 05:31 | 1.13738 | 44.70707 | 35963 ft | 482 kts | 214° |
| 2026-05-09 05:31 | 1.08170 | 44.66958 | 35985 ft | 482 kts | 214° |
| 2026-05-09 05:32 | 1.02604 | 44.63209 | 35969 ft | 481 kts | 214° |
| 2026-05-09 05:32 | 0.97086 | 44.59493 | 35969 ft | 480 kts | 214° |
| 2026-05-09 05:33 | 0.91559 | 44.55771 | 35948 ft | 476 kts | 214° |
| 2026-05-09 05:33 | 0.86091 | 44.52088 | 35967 ft | 477 kts | 214° |
| 2026-05-09 05:34 | 0.80546 | 44.48354 | 35967 ft | 479 kts | 214° |
| 2026-05-09 05:34 | 0.75036 | 44.44644 | 35963 ft | 480 kts | 214° |
| 2026-05-09 05:35 | 0.69491 | 44.40910 | 35968 ft | 481 kts | 214° |
| 2026-05-09 05:35 | 0.63945 | 44.37176 | 35987 ft | 480 kts | 214° |
| 2026-05-09 05:36 | 0.58441 | 44.33470 | 35968 ft | 479 kts | 214° |
| 2026-05-09 05:36 | 0.52947 | 44.29771 | 35962 ft | 479 kts | 214° |
| 2026-05-09 05:37 | 0.47442 | 44.26064 | 35966 ft | 478 kts | 214° |
| 2026-05-09 05:37 | 0.41932 | 44.22353 | 35969 ft | 477 kts | 214° |
| 2026-05-09 05:38 | 0.36607 | 44.18767 | 35967 ft | 477 kts | 214° |
| 2026-05-09 05:38 | 0.31104 | 44.15061 | 35963 ft | 478 kts | 214° |
| 2026-05-09 05:39 | 0.25601 | 44.11342 | 35973 ft | 477 kts | 214° |
| 2026-05-09 05:39 | 0.20338 | 44.07779 | 35985 ft | 477 kts | 214° |
| 2026-05-09 05:40 | 0.14829 | 44.04049 | 35987 ft | 478 kts | 213° |
| 2026-05-09 05:40 | 0.09322 | 44.00322 | 35968 ft | 478 kts | 213° |
| 2026-05-09 05:41 | 0.04031 | 43.96742 | 35966 ft | 478 kts | 214° |
| 2026-05-09 05:41 | -0.01470 | 43.93019 | 35964 ft | 478 kts | 213° |
| 2026-05-09 05:42 | -0.06983 | 43.89288 | 35982 ft | 478 kts | 213° |
| 2026-05-09 05:42 | -0.12480 | 43.85569 | 35959 ft | 478 kts | 213° |
| 2026-05-09 05:43 | -0.17996 | 43.81836 | 35963 ft | 478 kts | 213° |
| 2026-05-09 05:43 | -0.22558 | 43.78749 | 35988 ft | 478 kts | 213° |
| 2026-05-09 05:44 | -0.28088 | 43.75007 | 35986 ft | 479 kts | 213° |
| 2026-05-09 05:44 | -0.33597 | 43.71279 | 35961 ft | 479 kts | 213° |
| 2026-05-09 05:45 | -0.39115 | 43.67545 | 35966 ft | 479 kts | 213° |
| 2026-05-09 05:45 | -0.44635 | 43.63809 | 35970 ft | 479 kts | 214° |
| 2026-05-09 05:46 | -0.50141 | 43.60083 | 35987 ft | 478 kts | 214° |
| 2026-05-09 05:46 | -0.55657 | 43.56350 | 35969 ft | 477 kts | 213° |
| 2026-05-09 05:47 | -0.61147 | 43.52634 | 35967 ft | 478 kts | 213° |
| 2026-05-09 05:47 | -0.66637 | 43.48919 | 35970 ft | 478 kts | 213° |
| 2026-05-09 05:48 | -0.72106 | 43.45217 | 35988 ft | 478 kts | 213° |
| 2026-05-09 05:48 | -0.77578 | 43.41514 | 35988 ft | 478 kts | 213° |
| 2026-05-09 05:49 | -0.83059 | 43.37804 | 35967 ft | 478 kts | 213° |
| 2026-05-09 05:49 | -0.88532 | 43.34099 | 35964 ft | 477 kts | 213° |
| 2026-05-09 05:50 | -0.94019 | 43.30385 | 35993 ft | 475 kts | 213° |
| 2026-05-09 05:50 | -0.99497 | 43.26677 | 35991 ft | 476 kts | 213° |
| 2026-05-09 05:51 | -1.04950 | 43.22985 | 35974 ft | 476 kts | 213° |
| 2026-05-09 05:51 | -1.10439 | 43.19269 | 35969 ft | 476 kts | 213° |
| 2026-05-09 05:52 | -1.15923 | 43.15557 | 35973 ft | 477 kts | 213° |
| 2026-05-09 05:52 | -1.21425 | 43.11832 | 35990 ft | 478 kts | 213° |
| 2026-05-09 05:53 | -1.26937 | 43.08100 | 35991 ft | 478 kts | 212° |
| 2026-05-09 05:53 | -1.32440 | 43.04374 | 35972 ft | 478 kts | 213° |
| 2026-05-09 05:54 | -1.37958 | 43.00637 | 35973 ft | 478 kts | 213° |
| 2026-05-09 05:54 | -1.43242 | 42.97058 | 35977 ft | 478 kts | 212° |
| 2026-05-09 05:55 | -1.48749 | 42.93330 | 35980 ft | 478 kts | 213° |
| 2026-05-09 05:55 | -1.54265 | 42.89594 | 35978 ft | 479 kts | 213° |
| 2026-05-09 05:56 | -1.59781 | 42.85857 | 35937 ft | 477 kts | 213° |
| 2026-05-09 05:56 | -1.65246 | 42.82155 | 35978 ft | 479 kts | 213° |
| 2026-05-09 05:57 | -1.70808 | 42.78388 | 35979 ft | 482 kts | 212° |
| 2026-05-09 05:57 | -1.76370 | 42.74620 | 35977 ft | 484 kts | 213° |
| 2026-05-09 05:58 | -1.81920 | 42.70859 | 35983 ft | 485 kts | 213° |
| 2026-05-09 05:58 | -1.87537 | 42.67052 | 35996 ft | 485 kts | 213° |
| 2026-05-09 05:59 | -1.93091 | 42.63288 | 35984 ft | 485 kts | 212° |
| 2026-05-09 05:59 | -1.98668 | 42.59507 | 35978 ft | 484 kts | 212° |
| 2026-05-09 06:00 | -2.04202 | 42.55722 | 35999 ft | 483 kts | 213° |
| 2026-05-09 06:00 | -2.09724 | 42.51881 | 35981 ft | 483 kts | 213° |
| 2026-05-09 06:01 | -2.15237 | 42.48051 | 35985 ft | 483 kts | 213° |
| 2026-05-09 06:01 | -2.20773 | 42.44214 | 35985 ft | 483 kts | 213° |
| 2026-05-09 06:02 | -2.26228 | 42.40322 | 35985 ft | 483 kts | 214° |
| 2026-05-09 06:02 | -2.31592 | 42.36336 | 35985 ft | 484 kts | 215° |
| 2026-05-09 06:03 | -2.36995 | 42.32314 | 35986 ft | 484 kts | 215° |
| 2026-05-09 06:03 | -2.42394 | 42.28320 | 36003 ft | 484 kts | 214° |
| 2026-05-09 06:04 | -2.47824 | 42.24315 | 36002 ft | 484 kts | 214° |
| 2026-05-09 06:04 | -2.53240 | 42.20322 | 35989 ft | 485 kts | 214° |
| 2026-05-09 06:05 | -2.58678 | 42.16312 | 35986 ft | 485 kts | 215° |
| 2026-05-09 06:05 | -2.64105 | 42.12309 | 35991 ft | 485 kts | 214° |
| 2026-05-09 06:06 | -2.69541 | 42.08298 | 36006 ft | 485 kts | 214° |
| 2026-05-09 06:06 | -2.74968 | 42.04294 | 35989 ft | 485 kts | 215° |
| 2026-05-09 06:07 | -2.80363 | 42.00312 | 35990 ft | 485 kts | 214° |
| 2026-05-09 06:07 | -2.85566 | 41.96472 | 36008 ft | 485 kts | 214° |
| 2026-05-09 06:08 | -2.91002 | 41.92460 | 35998 ft | 485 kts | 214° |
| 2026-05-09 06:08 | -2.96432 | 41.88451 | 35995 ft | 485 kts | 214° |
| 2026-05-09 06:09 | -3.01844 | 41.84455 | 35992 ft | 484 kts | 214° |
| 2026-05-09 06:09 | -3.07265 | 41.80452 | 36014 ft | 484 kts | 214° |
| 2026-05-09 06:10 | -3.12667 | 41.76463 | 35996 ft | 484 kts | 215° |
| 2026-05-09 06:10 | -3.18087 | 41.72460 | 35995 ft | 484 kts | 214° |
| 2026-05-09 06:11 | -3.23514 | 41.68451 | 35996 ft | 484 kts | 214° |
| 2026-05-09 06:11 | -3.28929 | 41.64450 | 36013 ft | 485 kts | 214° |
| 2026-05-09 06:12 | -3.34363 | 41.60435 | 36016 ft | 485 kts | 214° |
| 2026-05-09 06:12 | -3.39792 | 41.56423 | 36001 ft | 485 kts | 214° |
| 2026-05-09 06:13 | -3.45207 | 41.52421 | 36000 ft | 485 kts | 214° |
| 2026-05-09 06:13 | -3.50598 | 41.48435 | 36000 ft | 485 kts | 214° |
| 2026-05-09 06:14 | -3.55970 | 41.44463 | 36018 ft | 485 kts | 214° |
| 2026-05-09 06:14 | -3.61413 | 41.40438 | 36000 ft | 485 kts | 214° |
| 2026-05-09 06:15 | -3.66831 | 41.36431 | 35998 ft | 485 kts | 215° |
| 2026-05-09 06:15 | -3.72270 | 41.32408 | 35998 ft | 486 kts | 214° |
| 2026-05-09 06:16 | -3.77694 | 41.28395 | 35999 ft | 485 kts | 215° |
| 2026-05-09 06:16 | -3.83129 | 41.24373 | 36022 ft | 485 kts | 214° |
| 2026-05-09 06:17 | -3.88554 | 41.20358 | 36004 ft | 485 kts | 214° |
| 2026-05-09 06:17 | -3.93981 | 41.16340 | 36001 ft | 485 kts | 215° |
| 2026-05-09 06:18 | -3.99421 | 41.12336 | 36005 ft | 484 kts | 213° |
| 2026-05-09 06:18 | -4.05078 | 41.08791 | 36004 ft | 483 kts | 209° |
| 2026-05-09 06:19 | -4.10816 | 41.05351 | 36021 ft | 483 kts | 209° |
| 2026-05-09 06:19 | -4.16608 | 41.01858 | 36004 ft | 483 kts | 209° |
| 2026-05-09 06:20 | -4.22208 | 40.98451 | 35999 ft | 483 kts | 209° |
| 2026-05-09 06:20 | -4.27947 | 40.94951 | 36019 ft | 483 kts | 210° |
| 2026-05-09 06:21 | -4.33651 | 40.91471 | 36020 ft | 483 kts | 210° |
| 2026-05-09 06:21 | -4.39396 | 40.87967 | 36002 ft | 483 kts | 210° |
| 2026-05-09 06:22 | -4.45139 | 40.84464 | 36004 ft | 483 kts | 210° |
| 2026-05-09 06:22 | -4.50887 | 40.80957 | 36004 ft | 483 kts | 210° |
| 2026-05-09 06:23 | -4.56630 | 40.77453 | 36019 ft | 483 kts | 210° |
| 2026-05-09 06:23 | -4.62369 | 40.73950 | 36022 ft | 483 kts | 210° |
| 2026-05-09 06:24 | -4.68121 | 40.70439 | 36008 ft | 483 kts | 210° |
| 2026-05-09 06:24 | -4.73854 | 40.66938 | 36007 ft | 483 kts | 210° |
| 2026-05-09 06:25 | -4.79604 | 40.63426 | 36006 ft | 483 kts | 210° |
| 2026-05-09 06:25 | -4.85143 | 40.59619 | 36013 ft | 484 kts | 216° |
| 2026-05-09 06:26 | -4.90417 | 40.55408 | 36006 ft | 485 kts | 217° |
| 2026-05-09 06:26 | -4.95650 | 40.51224 | 35929 ft | 475 kts | 217° |
| 2026-05-09 06:27 | -4.98238 | 40.49175 | 35447 ft | 474 kts | 216° |
| 2026-05-09 06:27 | -5.00810 | 40.47146 | 35006 ft | 469 kts | 216° |
| 2026-05-09 06:27 | -5.03362 | 40.45135 | 34573 ft | 466 kts | 216° |
| 2026-05-09 06:27 | -5.05901 | 40.43134 | 34098 ft | 462 kts | 216° |
| 2026-05-09 06:28 | -5.08425 | 40.41144 | 33585 ft | 459 kts | 216° |
| 2026-05-09 06:28 | -5.10920 | 40.39176 | 33109 ft | 456 kts | 216° |
| 2026-05-09 06:28 | -5.13457 | 40.37286 | 32638 ft | 451 kts | 212° |
| 2026-05-09 06:28 | -5.16090 | 40.35621 | 32194 ft | 446 kts | 209° |
| 2026-05-09 06:29 | -5.18759 | 40.34070 | 31762 ft | 442 kts | 208° |
| 2026-05-09 06:29 | -5.21410 | 40.32567 | 31305 ft | 439 kts | 208° |
| 2026-05-09 06:29 | -5.24059 | 40.31058 | 30875 ft | 436 kts | 208° |
| 2026-05-09 06:29 | -5.26688 | 40.29538 | 30419 ft | 433 kts | 209° |
| 2026-05-09 06:30 | -5.29282 | 40.28018 | 29944 ft | 431 kts | 209° |
| 2026-05-09 06:30 | -5.31819 | 40.26516 | 29462 ft | 428 kts | 210° |
| 2026-05-09 06:30 | -5.33545 | 40.25489 | 29134 ft | 426 kts | 210° |
| 2026-05-09 06:30 | -5.36925 | 40.23471 | 28511 ft | 421 kts | 210° |
| 2026-05-09 06:31 | -5.38600 | 40.22470 | 28214 ft | 419 kts | 210° |
| 2026-05-09 06:31 | -5.41092 | 40.20980 | 27776 ft | 415 kts | 210° |
| 2026-05-09 06:31 | -5.43565 | 40.19501 | 27335 ft | 412 kts | 209° |
| 2026-05-09 06:31 | -5.46022 | 40.18032 | 26892 ft | 410 kts | 210° |
| 2026-05-09 06:32 | -5.48465 | 40.16572 | 26454 ft | 407 kts | 209° |
| 2026-05-09 06:32 | -5.50887 | 40.15124 | 26030 ft | 405 kts | 210° |
| 2026-05-09 06:32 | -5.53304 | 40.13679 | 25582 ft | 403 kts | 210° |
| 2026-05-09 06:33 | -5.58052 | 40.10841 | 24711 ft | 400 kts | 210° |
| 2026-05-09 06:33 | -5.60436 | 40.09416 | 24275 ft | 399 kts | 210° |
| 2026-05-09 06:33 | -5.62816 | 40.07993 | 23842 ft | 398 kts | 210° |
| 2026-05-09 06:34 | -5.67562 | 40.05155 | 22864 ft | 395 kts | 210° |
| 2026-05-09 06:34 | -5.69911 | 40.03750 | 22420 ft | 392 kts | 210° |
| 2026-05-09 06:34 | -5.72246 | 40.02353 | 21966 ft | 390 kts | 209° |
| 2026-05-09 06:34 | -5.74533 | 40.00985 | 21538 ft | 387 kts | 209° |
| 2026-05-09 06:35 | -5.76699 | 39.99690 | 21137 ft | 385 kts | 210° |
| 2026-05-09 06:35 | -5.79003 | 39.98311 | 20706 ft | 383 kts | 209° |
| 2026-05-09 06:35 | -5.81256 | 39.96963 | 20271 ft | 381 kts | 208° |
| 2026-05-09 06:35 | -5.83550 | 39.95589 | 19846 ft | 380 kts | 210° |
| 2026-05-09 06:36 | -5.85790 | 39.94248 | 19408 ft | 379 kts | 209° |
| 2026-05-09 06:36 | -5.88047 | 39.92896 | 18971 ft | 377 kts | 209° |
| 2026-05-09 06:36 | -5.90298 | 39.91549 | 18537 ft | 377 kts | 209° |
| 2026-05-09 06:36 | -5.92548 | 39.90203 | 18048 ft | 376 kts | 210° |
| 2026-05-09 06:37 | -5.94791 | 39.88860 | 17590 ft | 374 kts | 209° |
| 2026-05-09 06:37 | -5.97019 | 39.87526 | 17154 ft | 372 kts | 209° |
| 2026-05-09 06:37 | -5.99240 | 39.86196 | 16711 ft | 370 kts | 209° |
| 2026-05-09 06:37 | -6.01423 | 39.84888 | 16287 ft | 368 kts | 209° |
| 2026-05-09 06:38 | -6.03616 | 39.83575 | 15871 ft | 366 kts | 209° |
| 2026-05-09 06:38 | -6.05787 | 39.82274 | 15450 ft | 364 kts | 209° |
| 2026-05-09 06:38 | -6.07956 | 39.80975 | 15029 ft | 362 kts | 209° |
| 2026-05-09 06:38 | -6.10110 | 39.79683 | 14594 ft | 360 kts | 208° |
| 2026-05-09 06:39 | -6.12260 | 39.78395 | 14182 ft | 359 kts | 208° |
| 2026-05-09 06:39 | -6.14412 | 39.77106 | 13752 ft | 359 kts | 208° |
| 2026-05-09 06:39 | -6.16547 | 39.75813 | 13297 ft | 358 kts | 210° |
| 2026-05-09 06:39 | -6.18630 | 39.74439 | 12868 ft | 356 kts | 212° |
| 2026-05-09 06:40 | -6.20647 | 39.73056 | 12447 ft | 355 kts | 212° |
| 2026-05-09 06:40 | -6.22702 | 39.71639 | 12027 ft | 353 kts | 212° |
| 2026-05-09 06:40 | -6.24702 | 39.70265 | 11604 ft | 352 kts | 212° |
| 2026-05-09 06:40 | -6.26722 | 39.68885 | 11196 ft | 349 kts | 212° |
| 2026-05-09 06:41 | -6.28734 | 39.67515 | 10799 ft | 348 kts | 212° |
| 2026-05-09 06:41 | -6.30755 | 39.66142 | 10399 ft | 346 kts | 212° |
| 2026-05-09 06:41 | -6.32718 | 39.64810 | 9986 ft | 345 kts | 212° |
| 2026-05-09 06:41 | -6.34725 | 39.63448 | 9550 ft | 344 kts | 212° |
| 2026-05-09 06:42 | -6.36700 | 39.62107 | 9144 ft | 342 kts | 212° |
| 2026-05-09 06:42 | -6.38641 | 39.60790 | 8736 ft | 340 kts | 212° |
| 2026-05-09 06:42 | -6.40597 | 39.59464 | 8338 ft | 337 kts | 212° |
| 2026-05-09 06:42 | -6.42557 | 39.58134 | 7939 ft | 334 kts | 212° |
| 2026-05-09 06:43 | -6.44446 | 39.56852 | 7550 ft | 332 kts | 212° |
| 2026-05-09 06:43 | -6.46362 | 39.55551 | 7162 ft | 330 kts | 211° |
| 2026-05-09 06:43 | -6.48260 | 39.54264 | 6788 ft | 329 kts | 212° |
| 2026-05-09 06:43 | -6.50156 | 39.52977 | 6402 ft | 327 kts | 212° |
| 2026-05-09 06:44 | -6.52040 | 39.51698 | 5993 ft | 326 kts | 212° |
| 2026-05-09 06:44 | -6.53903 | 39.50432 | 5606 ft | 324 kts | 212° |
| 2026-05-09 06:44 | -6.55767 | 39.49166 | 5211 ft | 322 kts | 212° |
| 2026-05-09 06:44 | -6.57619 | 39.47908 | 4843 ft | 320 kts | 212° |
| 2026-05-09 06:45 | -6.59448 | 39.46664 | 4530 ft | 315 kts | 212° |
| 2026-05-09 06:45 | -6.61215 | 39.45462 | 4379 ft | 294 kts | 212° |
| 2026-05-09 06:45 | -6.62825 | 39.44365 | 4219 ft | 265 kts | 211° |
| 2026-05-09 06:45 | -6.64273 | 39.43378 | 4112 ft | 238 kts | 211° |
| 2026-05-09 06:46 | -6.65583 | 39.42485 | 4004 ft | 230 kts | 214° |
| 2026-05-09 06:46 | -6.66795 | 39.41397 | 3765 ft | 243 kts | 222° |
| 2026-05-09 06:46 | -6.67992 | 39.40159 | 3489 ft | 251 kts | 223° |
| 2026-05-09 06:46 | -6.69218 | 39.38897 | 3181 ft | 253 kts | 222° |
| 2026-05-09 06:47 | -6.70456 | 39.37640 | 2848 ft | 249 kts | 222° |
| 2026-05-09 06:47 | -6.71643 | 39.36443 | 2533 ft | 234 kts | 221° |
| 2026-05-09 06:47 | -6.72789 | 39.35293 | 2406 ft | 230 kts | 221° |
| 2026-05-09 06:47 | -6.73913 | 39.34167 | 2345 ft | 225 kts | 221° |
| 2026-05-09 06:48 | -6.74994 | 39.33084 | 2309 ft | 212 kts | 222° |
| 2026-05-09 06:48 | -6.75982 | 39.32094 | 2261 ft | 195 kts | 221° |
| 2026-05-09 06:48 | -6.76925 | 39.31151 | 2304 ft | 191 kts | 221° |
| 2026-05-09 06:48 | -6.77870 | 39.30208 | 2317 ft | 191 kts | 221° |
| 2026-05-09 06:49 | -6.78778 | 39.29299 | 2341 ft | 180 kts | 221° |
| 2026-05-09 06:49 | -6.79603 | 39.28471 | 2300 ft | 164 kts | 220° |
| 2026-05-09 06:49 | -6.80426 | 39.27651 | 2336 ft | 173 kts | 220° |
| 2026-05-09 06:49 | -6.81243 | 39.26834 | 2310 ft | 161 kts | 220° |
| 2026-05-09 06:50 | -6.82011 | 39.26065 | 2036 ft | 155 kts | 220° |
| 2026-05-09 06:50 | -6.82732 | 39.25356 | 1569 ft | 153 kts | 219° |
| 2026-05-09 06:50 | -6.83487 | 39.24589 | 1079 ft | 151 kts | 221° |
| 2026-05-09 06:50 | -6.84178 | 39.23857 | 760 ft | 140 kts | 223° |
| 2026-05-09 06:51 | -6.84874 | 39.23180 | 536 ft | 140 kts | 221° |
| 2026-05-09 06:51 | -6.85590 | 39.22480 | 410 ft | 147 kts | 224° |
| 2026-05-09 06:51 | -6.86302 | 39.21760 | 228 ft | 143 kts | 225° |
| 2026-05-09 06:51 | -6.86928 | 39.21139 | 180 ft | 129 kts | 223° |
| 2026-05-09 06:52 | -6.87431 | 39.20643 | 201 ft | 104 kts | 224° |
| 2026-05-09 06:52 | -6.87806 | 39.20273 | 184 ft | 80 kts | 224° |
| 2026-05-09 06:52 | -6.88043 | 39.20040 | 183 ft | 3 kts | 232° |
| 2026-05-09 06:52 | -6.88060 | 39.20006 | 183 ft | 17 kts | 251° |
| 2026-05-09 06:53 | -6.88019 | 39.19910 | 201 ft | 20 kts | 335° |
| 2026-05-09 06:53 | -6.87874 | 39.19941 | 202 ft | 25 kts | 40° |
| 2026-05-09 06:53 | -6.87738 | 39.20079 | 202 ft | 31 kts | 46° |
| 2026-05-09 06:53 | -6.87649 | 39.20172 | 204 ft | 16 kts | 46° |
| 2026-05-09 06:54 | -6.87569 | 39.20254 | 201 ft | 16 kts | 46° |
| 2026-05-09 06:54 | -6.87488 | 39.20337 | 202 ft | 17 kts | 45° |
| 2026-05-09 06:54 | -6.87404 | 39.20422 | 197 ft | 17 kts | 45° |
| 2026-05-09 06:54 | -6.87318 | 39.20508 | 204 ft | 18 kts | 44° |
| 2026-05-09 06:55 | -6.87224 | 39.20602 | 193 ft | 20 kts | 46° |
| 2026-05-09 06:55 | -6.87127 | 39.20701 | 193 ft | 20 kts | 44° |
| 2026-05-09 06:55 | -6.87028 | 39.20798 | 182 ft | 20 kts | 45° |
| 2026-05-09 06:55 | -6.86930 | 39.20897 | 182 ft | 20 kts | 45° |
| 2026-05-09 06:56 | -6.86832 | 39.20994 | 183 ft | 20 kts | 44° |
| 2026-05-09 06:56 | -6.86738 | 39.21091 | 183 ft | 20 kts | 47° |
| 2026-05-09 06:56 | -6.86643 | 39.21190 | 199 ft | 20 kts | 45° |
| 2026-05-09 06:56 | -6.86568 | 39.21266 | 198 ft | 12 kts | 45° |
| 2026-05-09 06:57 | -6.86506 | 39.21330 | 201 ft | 14 kts | 45° |
| 2026-05-09 06:57 | -6.86421 | 39.21368 | 182 ft | 14 kts | 0° |
| 2026-05-09 06:57 | -6.86329 | 39.21373 | 197 ft | 11 kts | 342° |
| 2026-05-09 06:57 | -6.86314 | 39.21363 | 201 ft | 0 kts | 316° |
| 2026-05-09 06:58 | -6.86334 | 39.21382 | 201 ft | 0 kts | 317° |
| 2026-05-09 06:58 | -6.86322 | 39.21372 | 199 ft | 5 kts | 321° |
| 2026-05-09 06:58 | -6.86296 | 39.21349 | 184 ft | 2 kts | 316° |
| 2026-05-09 06:58 | -6.86283 | 39.21335 | 183 ft | 0 kts | 315° |
| 2026-05-09 06:59 | -6.86279 | 39.21332 | 183 ft | 0 kts | 315° |
| 2026-05-09 06:59 | -6.86278 | 39.21331 | 183 ft | 0 kts | 315° |